sensor_id;sensor_type;location;lat;lon;timestamp;P1;durP1;ratioP1;P2;durP2;ratioP2
45039;SDS011;30778;53.574;7.770;2022-07-19T00:01:29;3.85;;;2.25;;
45039;SDS011;30778;53.574;7.770;2022-07-19T00:03:57;3.25;;;1.90;;
45039;SDS011;30778;53.574;7.770;2022-07-19T00:06:24;5.13;;;2.20;;
45039;SDS011;30778;53.574;7.770;2022-07-19T00:08:49;4.97;;;1.67;;
45039;SDS011;30778;53.574;7.770;2022-07-19T00:11:15;4.43;;;2.33;;
45039;SDS011;30778;53.574;7.770;2022-07-19T00:13:40;3.33;;;1.60;;
45039;SDS011;30778;53.574;7.770;2022-07-19T00:16:06;4.53;;;2.15;;
45039;SDS011;30778;53.574;7.770;2022-07-19T00:18:31;4.72;;;1.90;;
45039;SDS011;30778;53.574;7.770;2022-07-19T00:20:57;3.53;;;1.88;;
45039;SDS011;30778;53.574;7.770;2022-07-19T00:23:23;4.10;;;2.05;;
45039;SDS011;30778;53.574;7.770;2022-07-19T00:25:48;4.82;;;1.75;;
45039;SDS011;30778;53.574;7.770;2022-07-19T00:28:14;5.63;;;2.30;;
45039;SDS011;30778;53.574;7.770;2022-07-19T00:30:39;3.65;;;1.98;;
45039;SDS011;30778;53.574;7.770;2022-07-19T00:33:05;3.85;;;2.20;;
45039;SDS011;30778;53.574;7.770;2022-07-19T00:35:34;4.80;;;2.45;;
45039;SDS011;30778;53.574;7.770;2022-07-19T00:38:07;3.67;;;2.28;;
45039;SDS011;30778;53.574;7.770;2022-07-19T00:40:34;3.60;;;2.53;;
45039;SDS011;30778;53.574;7.770;2022-07-19T00:43:01;4.88;;;2.17;;
45039;SDS011;30778;53.574;7.770;2022-07-19T00:45:27;3.08;;;1.75;;
45039;SDS011;30778;53.574;7.770;2022-07-19T00:47:53;4.90;;;2.67;;
45039;SDS011;30778;53.574;7.770;2022-07-19T00:50:19;4.90;;;2.60;;
45039;SDS011;30778;53.574;7.770;2022-07-19T00:52:46;4.63;;;2.45;;
45039;SDS011;30778;53.574;7.770;2022-07-19T00:55:15;4.15;;;2.55;;
45039;SDS011;30778;53.574;7.770;2022-07-19T00:57:43;4.03;;;1.88;;
45039;SDS011;30778;53.574;7.770;2022-07-19T01:00:11;5.47;;;3.42;;
45039;SDS011;30778;53.574;7.770;2022-07-19T01:02:37;10.52;;;4.00;;
45039;SDS011;30778;53.574;7.770;2022-07-19T01:05:03;4.85;;;3.10;;
45039;SDS011;30778;53.574;7.770;2022-07-19T01:07:30;6.50;;;3.67;;
45039;SDS011;30778;53.574;7.770;2022-07-19T01:09:57;3.88;;;2.95;;
45039;SDS011;30778;53.574;7.770;2022-07-19T01:12:22;3.97;;;2.88;;
45039;SDS011;30778;53.574;7.770;2022-07-19T01:14:49;6.53;;;2.92;;
45039;SDS011;30778;53.574;7.770;2022-07-19T01:17:15;7.20;;;3.75;;
45039;SDS011;30778;53.574;7.770;2022-07-19T01:19:44;7.93;;;3.47;;
45039;SDS011;30778;53.574;7.770;2022-07-19T01:22:09;6.22;;;2.63;;
45039;SDS011;30778;53.574;7.770;2022-07-19T01:24:35;5.28;;;3.00;;
45039;SDS011;30778;53.574;7.770;2022-07-19T01:27:01;5.18;;;2.95;;
45039;SDS011;30778;53.574;7.770;2022-07-19T01:29:26;6.45;;;3.08;;
45039;SDS011;30778;53.574;7.770;2022-07-19T01:31:52;4.65;;;3.00;;
45039;SDS011;30778;53.574;7.770;2022-07-19T01:34:17;5.18;;;2.80;;
45039;SDS011;30778;53.574;7.770;2022-07-19T01:36:42;6.20;;;3.15;;
45039;SDS011;30778;53.574;7.770;2022-07-19T01:39:08;4.25;;;2.95;;
45039;SDS011;30778;53.574;7.770;2022-07-19T01:41:33;2.92;;;2.45;;
45039;SDS011;30778;53.574;7.770;2022-07-19T01:43:59;5.45;;;2.78;;
45039;SDS011;30778;53.574;7.770;2022-07-19T01:46:25;6.20;;;2.97;;
45039;SDS011;30778;53.574;7.770;2022-07-19T01:48:50;4.90;;;3.45;;
45039;SDS011;30778;53.574;7.770;2022-07-19T01:51:16;7.22;;;3.17;;
45039;SDS011;30778;53.574;7.770;2022-07-19T01:53:41;6.72;;;3.55;;
45039;SDS011;30778;53.574;7.770;2022-07-19T01:56:07;5.03;;;3.30;;
45039;SDS011;30778;53.574;7.770;2022-07-19T01:58:32;5.63;;;3.40;;
45039;SDS011;30778;53.574;7.770;2022-07-19T02:01:00;4.35;;;3.53;;
45039;SDS011;30778;53.574;7.770;2022-07-19T02:03:26;5.75;;;3.08;;
45039;SDS011;30778;53.574;7.770;2022-07-19T02:05:51;4.75;;;2.65;;
45039;SDS011;30778;53.574;7.770;2022-07-19T02:08:17;4.18;;;2.60;;
45039;SDS011;30778;53.574;7.770;2022-07-19T02:10:43;4.45;;;2.75;;
45039;SDS011;30778;53.574;7.770;2022-07-19T02:13:08;5.57;;;3.10;;
45039;SDS011;30778;53.574;7.770;2022-07-19T02:15:34;4.82;;;2.78;;
45039;SDS011;30778;53.574;7.770;2022-07-19T02:17:59;5.68;;;2.70;;
45039;SDS011;30778;53.574;7.770;2022-07-19T02:20:25;3.97;;;2.60;;
45039;SDS011;30778;53.574;7.770;2022-07-19T02:22:51;4.78;;;3.58;;
45039;SDS011;30778;53.574;7.770;2022-07-19T02:25:17;7.07;;;4.00;;
45039;SDS011;30778;53.574;7.770;2022-07-19T02:27:43;4.55;;;2.83;;
45039;SDS011;30778;53.574;7.770;2022-07-19T02:30:09;4.38;;;2.88;;
45039;SDS011;30778;53.574;7.770;2022-07-19T02:32:37;4.70;;;3.17;;
45039;SDS011;30778;53.574;7.770;2022-07-19T02:35:03;4.97;;;3.28;;
45039;SDS011;30778;53.574;7.770;2022-07-19T02:37:32;4.15;;;3.40;;
45039;SDS011;30778;53.574;7.770;2022-07-19T02:39:57;5.22;;;3.20;;
45039;SDS011;30778;53.574;7.770;2022-07-19T02:42:23;4.13;;;2.50;;
45039;SDS011;30778;53.574;7.770;2022-07-19T02:44:48;3.35;;;2.72;;
45039;SDS011;30778;53.574;7.770;2022-07-19T02:47:14;5.20;;;2.80;;
45039;SDS011;30778;53.574;7.770;2022-07-19T02:49:40;5.63;;;3.15;;
45039;SDS011;30778;53.574;7.770;2022-07-19T02:52:06;4.30;;;2.72;;
45039;SDS011;30778;53.574;7.770;2022-07-19T02:54:31;5.03;;;3.10;;
45039;SDS011;30778;53.574;7.770;2022-07-19T02:56:57;4.65;;;2.75;;
45039;SDS011;30778;53.574;7.770;2022-07-19T02:59:22;4.88;;;3.08;;
45039;SDS011;30778;53.574;7.770;2022-07-19T03:01:48;4.93;;;3.80;;
45039;SDS011;30778;53.574;7.770;2022-07-19T03:04:14;5.97;;;3.47;;
45039;SDS011;30778;53.574;7.770;2022-07-19T03:06:39;5.63;;;3.05;;
45039;SDS011;30778;53.574;7.770;2022-07-19T03:09:05;6.28;;;3.28;;
45039;SDS011;30778;53.574;7.770;2022-07-19T03:11:30;7.40;;;3.67;;
45039;SDS011;30778;53.574;7.770;2022-07-19T03:13:55;4.50;;;2.80;;
45039;SDS011;30778;53.574;7.770;2022-07-19T03:16:21;5.00;;;3.55;;
45039;SDS011;30778;53.574;7.770;2022-07-19T03:18:47;7.97;;;4.18;;
45039;SDS011;30778;53.574;7.770;2022-07-19T03:21:12;4.55;;;3.75;;
45039;SDS011;30778;53.574;7.770;2022-07-19T03:23:38;4.85;;;2.90;;
45039;SDS011;30778;53.574;7.770;2022-07-19T03:26:04;5.68;;;3.97;;
45039;SDS011;30778;53.574;7.770;2022-07-19T03:28:30;7.50;;;3.03;;
45039;SDS011;30778;53.574;7.770;2022-07-19T03:30:56;4.28;;;3.42;;
45039;SDS011;30778;53.574;7.770;2022-07-19T03:33:21;5.35;;;3.88;;
45039;SDS011;30778;53.574;7.770;2022-07-19T03:35:47;6.65;;;3.20;;
45039;SDS011;30778;53.574;7.770;2022-07-19T03:38:13;8.48;;;4.50;;
45039;SDS011;30778;53.574;7.770;2022-07-19T03:40:40;7.07;;;4.75;;
45039;SDS011;30778;53.574;7.770;2022-07-19T03:43:06;7.03;;;4.80;;
45039;SDS011;30778;53.574;7.770;2022-07-19T03:45:32;6.20;;;4.10;;
45039;SDS011;30778;53.574;7.770;2022-07-19T03:47:58;6.97;;;4.47;;
45039;SDS011;30778;53.574;7.770;2022-07-19T03:50:25;6.10;;;3.72;;
45039;SDS011;30778;53.574;7.770;2022-07-19T03:52:51;5.00;;;3.47;;
45039;SDS011;30778;53.574;7.770;2022-07-19T03:55:16;7.82;;;3.40;;
45039;SDS011;30778;53.574;7.770;2022-07-19T03:57:42;4.72;;;3.58;;
45039;SDS011;30778;53.574;7.770;2022-07-19T04:00:07;7.35;;;4.15;;
45039;SDS011;30778;53.574;7.770;2022-07-19T04:02:40;5.05;;;3.90;;
45039;SDS011;30778;53.574;7.770;2022-07-19T04:05:06;5.65;;;3.05;;
45039;SDS011;30778;53.574;7.770;2022-07-19T04:07:33;5.55;;;3.72;;
45039;SDS011;30778;53.574;7.770;2022-07-19T04:09:58;5.20;;;2.92;;
45039;SDS011;30778;53.574;7.770;2022-07-19T04:12:24;7.13;;;3.92;;
45039;SDS011;30778;53.574;7.770;2022-07-19T04:14:49;9.25;;;4.35;;
45039;SDS011;30778;53.574;7.770;2022-07-19T04:17:15;5.75;;;4.25;;
45039;SDS011;30778;53.574;7.770;2022-07-19T04:19:41;6.03;;;3.30;;
45039;SDS011;30778;53.574;7.770;2022-07-19T04:22:06;6.00;;;3.70;;
45039;SDS011;30778;53.574;7.770;2022-07-19T04:24:32;8.30;;;3.40;;
45039;SDS011;30778;53.574;7.770;2022-07-19T04:26:57;8.45;;;3.88;;
45039;SDS011;30778;53.574;7.770;2022-07-19T04:29:23;8.88;;;4.60;;
45039;SDS011;30778;53.574;7.770;2022-07-19T04:31:48;7.28;;;4.28;;
45039;SDS011;30778;53.574;7.770;2022-07-19T04:34:13;6.65;;;4.30;;
45039;SDS011;30778;53.574;7.770;2022-07-19T04:36:39;8.18;;;4.97;;
45039;SDS011;30778;53.574;7.770;2022-07-19T04:39:05;6.95;;;5.00;;
45039;SDS011;30778;53.574;7.770;2022-07-19T04:41:30;8.32;;;4.78;;
45039;SDS011;30778;53.574;7.770;2022-07-19T04:43:56;8.60;;;4.05;;
45039;SDS011;30778;53.574;7.770;2022-07-19T04:46:21;9.15;;;4.20;;
45039;SDS011;30778;53.574;7.770;2022-07-19T04:48:47;11.38;;;5.05;;
45039;SDS011;30778;53.574;7.770;2022-07-19T04:51:13;13.45;;;5.00;;
45039;SDS011;30778;53.574;7.770;2022-07-19T04:53:38;9.73;;;4.97;;
45039;SDS011;30778;53.574;7.770;2022-07-19T04:56:04;11.52;;;5.30;;
45039;SDS011;30778;53.574;7.770;2022-07-19T04:58:30;8.50;;;5.22;;
45039;SDS011;30778;53.574;7.770;2022-07-19T05:00:56;9.57;;;4.85;;
45039;SDS011;30778;53.574;7.770;2022-07-19T05:03:22;10.07;;;5.45;;
45039;SDS011;30778;53.574;7.770;2022-07-19T05:05:47;9.07;;;4.80;;
45039;SDS011;30778;53.574;7.770;2022-07-19T05:08:13;9.93;;;4.75;;
45039;SDS011;30778;53.574;7.770;2022-07-19T05:10:39;10.55;;;5.85;;
45039;SDS011;30778;53.574;7.770;2022-07-19T05:13:05;11.20;;;5.10;;
45039;SDS011;30778;53.574;7.770;2022-07-19T05:15:30;7.70;;;5.15;;
45039;SDS011;30778;53.574;7.770;2022-07-19T05:17:56;10.02;;;5.10;;
45039;SDS011;30778;53.574;7.770;2022-07-19T05:20:22;11.05;;;5.97;;
45039;SDS011;30778;53.574;7.770;2022-07-19T05:22:48;8.30;;;4.82;;
45039;SDS011;30778;53.574;7.770;2022-07-19T05:25:15;8.20;;;5.07;;
45039;SDS011;30778;53.574;7.770;2022-07-19T05:27:41;9.48;;;5.22;;
45039;SDS011;30778;53.574;7.770;2022-07-19T05:30:09;7.03;;;4.13;;
45039;SDS011;30778;53.574;7.770;2022-07-19T05:32:37;9.45;;;5.43;;
45039;SDS011;30778;53.574;7.770;2022-07-19T05:35:03;6.75;;;5.00;;
45039;SDS011;30778;53.574;7.770;2022-07-19T05:37:29;8.15;;;4.80;;
45039;SDS011;30778;53.574;7.770;2022-07-19T05:39:56;9.10;;;4.95;;
45039;SDS011;30778;53.574;7.770;2022-07-19T05:42:21;8.88;;;4.97;;
45039;SDS011;30778;53.574;7.770;2022-07-19T05:44:47;8.20;;;5.28;;
45039;SDS011;30778;53.574;7.770;2022-07-19T05:47:12;10.70;;;5.20;;
45039;SDS011;30778;53.574;7.770;2022-07-19T05:49:38;6.97;;;4.50;;
45039;SDS011;30778;53.574;7.770;2022-07-19T05:52:03;8.10;;;4.95;;
45039;SDS011;30778;53.574;7.770;2022-07-19T05:54:29;7.82;;;5.38;;
45039;SDS011;30778;53.574;7.770;2022-07-19T05:56:55;7.90;;;5.07;;
45039;SDS011;30778;53.574;7.770;2022-07-19T05:59:21;7.28;;;3.95;;
45039;SDS011;30778;53.574;7.770;2022-07-19T06:01:50;7.78;;;4.88;;
45039;SDS011;30778;53.574;7.770;2022-07-19T06:04:15;5.93;;;4.18;;
45039;SDS011;30778;53.574;7.770;2022-07-19T06:06:41;7.97;;;4.40;;
45039;SDS011;30778;53.574;7.770;2022-07-19T06:09:07;7.07;;;4.28;;
45039;SDS011;30778;53.574;7.770;2022-07-19T06:11:37;8.90;;;4.30;;
45039;SDS011;30778;53.574;7.770;2022-07-19T06:14:05;11.52;;;4.60;;
45039;SDS011;30778;53.574;7.770;2022-07-19T06:16:32;8.93;;;4.13;;
45039;SDS011;30778;53.574;7.770;2022-07-19T06:18:58;4.97;;;3.72;;
45039;SDS011;30778;53.574;7.770;2022-07-19T06:21:23;6.75;;;3.92;;
45039;SDS011;30778;53.574;7.770;2022-07-19T06:23:49;7.25;;;3.67;;
45039;SDS011;30778;53.574;7.770;2022-07-19T06:26:15;5.88;;;3.50;;
45039;SDS011;30778;53.574;7.770;2022-07-19T06:28:41;6.60;;;3.70;;
45039;SDS011;30778;53.574;7.770;2022-07-19T06:31:08;5.55;;;3.58;;
45039;SDS011;30778;53.574;7.770;2022-07-19T06:33:40;6.28;;;4.68;;
45039;SDS011;30778;53.574;7.770;2022-07-19T06:36:06;10.68;;;3.90;;
45039;SDS011;30778;53.574;7.770;2022-07-19T06:38:32;6.85;;;3.08;;
45039;SDS011;30778;53.574;7.770;2022-07-19T06:40:58;7.30;;;2.90;;
45039;SDS011;30778;53.574;7.770;2022-07-19T06:43:23;7.20;;;3.22;;
45039;SDS011;30778;53.574;7.770;2022-07-19T06:45:49;6.10;;;3.50;;
45039;SDS011;30778;53.574;7.770;2022-07-19T06:48:15;5.82;;;3.38;;
45039;SDS011;30778;53.574;7.770;2022-07-19T06:50:40;7.63;;;3.17;;
45039;SDS011;30778;53.574;7.770;2022-07-19T06:53:06;4.63;;;3.38;;
45039;SDS011;30778;53.574;7.770;2022-07-19T06:55:31;4.68;;;2.92;;
45039;SDS011;30778;53.574;7.770;2022-07-19T06:57:57;4.22;;;3.83;;
45039;SDS011;30778;53.574;7.770;2022-07-19T07:00:22;3.67;;;2.42;;
45039;SDS011;30778;53.574;7.770;2022-07-19T07:02:48;6.40;;;2.65;;
45039;SDS011;30778;53.574;7.770;2022-07-19T07:05:13;4.68;;;3.42;;
45039;SDS011;30778;53.574;7.770;2022-07-19T07:07:39;4.90;;;2.90;;
45039;SDS011;30778;53.574;7.770;2022-07-19T07:10:06;5.15;;;2.88;;
45039;SDS011;30778;53.574;7.770;2022-07-19T07:12:33;2.90;;;2.60;;
45039;SDS011;30778;53.574;7.770;2022-07-19T07:14:59;4.75;;;2.97;;
45039;SDS011;30778;53.574;7.770;2022-07-19T07:17:24;10.45;;;3.08;;
45039;SDS011;30778;53.574;7.770;2022-07-19T07:19:50;3.58;;;2.60;;
45039;SDS011;30778;53.574;7.770;2022-07-19T07:22:16;7.47;;;2.95;;
45039;SDS011;30778;53.574;7.770;2022-07-19T07:24:41;4.50;;;2.55;;
45039;SDS011;30778;53.574;7.770;2022-07-19T07:27:07;4.05;;;2.88;;
45039;SDS011;30778;53.574;7.770;2022-07-19T07:29:32;8.20;;;2.92;;
45039;SDS011;30778;53.574;7.770;2022-07-19T07:31:58;4.93;;;2.80;;
45039;SDS011;30778;53.574;7.770;2022-07-19T07:34:24;4.88;;;2.78;;
45039;SDS011;30778;53.574;7.770;2022-07-19T07:36:49;6.70;;;3.15;;
45039;SDS011;30778;53.574;7.770;2022-07-19T07:39:15;3.92;;;2.40;;
45039;SDS011;30778;53.574;7.770;2022-07-19T07:41:40;3.90;;;2.30;;
45039;SDS011;30778;53.574;7.770;2022-07-19T07:44:06;4.38;;;2.22;;
45039;SDS011;30778;53.574;7.770;2022-07-19T07:46:32;4.43;;;3.00;;
45039;SDS011;30778;53.574;7.770;2022-07-19T07:48:57;3.95;;;2.53;;
45039;SDS011;30778;53.574;7.770;2022-07-19T07:51:23;6.00;;;2.42;;
45039;SDS011;30778;53.574;7.770;2022-07-19T07:53:49;3.45;;;2.53;;
45039;SDS011;30778;53.574;7.770;2022-07-19T07:56:15;4.40;;;2.22;;
45039;SDS011;30778;53.574;7.770;2022-07-19T07:58:40;7.25;;;2.47;;
45039;SDS011;30778;53.574;7.770;2022-07-19T08:01:06;3.30;;;2.35;;
45039;SDS011;30778;53.574;7.770;2022-07-19T08:03:32;3.60;;;2.75;;
45039;SDS011;30778;53.574;7.770;2022-07-19T08:05:57;2.45;;;1.98;;
45039;SDS011;30778;53.574;7.770;2022-07-19T08:08:24;3.70;;;2.10;;
45039;SDS011;30778;53.574;7.770;2022-07-19T08:10:55;6.05;;;2.08;;
45039;SDS011;30778;53.574;7.770;2022-07-19T08:13:21;4.18;;;2.05;;
45039;SDS011;30778;53.574;7.770;2022-07-19T08:15:48;4.15;;;2.22;;
45039;SDS011;30778;53.574;7.770;2022-07-19T08:18:14;2.95;;;1.85;;
45039;SDS011;30778;53.574;7.770;2022-07-19T08:20:40;3.03;;;2.03;;
45039;SDS011;30778;53.574;7.770;2022-07-19T08:23:05;3.25;;;2.13;;
45039;SDS011;30778;53.574;7.770;2022-07-19T08:25:31;3.78;;;2.53;;
45039;SDS011;30778;53.574;7.770;2022-07-19T08:27:58;3.83;;;1.73;;
45039;SDS011;30778;53.574;7.770;2022-07-19T08:30:24;4.30;;;2.00;;
45039;SDS011;30778;53.574;7.770;2022-07-19T08:32:50;5.85;;;2.08;;
45039;SDS011;30778;53.574;7.770;2022-07-19T08:35:15;2.05;;;1.73;;
45039;SDS011;30778;53.574;7.770;2022-07-19T08:37:41;2.33;;;1.42;;
45039;SDS011;30778;53.574;7.770;2022-07-19T08:40:07;3.50;;;1.85;;
45039;SDS011;30778;53.574;7.770;2022-07-19T08:42:32;6.25;;;2.05;;
45039;SDS011;30778;53.574;7.770;2022-07-19T08:45:03;4.38;;;1.40;;
45039;SDS011;30778;53.574;7.770;2022-07-19T08:47:32;4.07;;;2.03;;
45039;SDS011;30778;53.574;7.770;2022-07-19T08:49:58;1.63;;;1.50;;
45039;SDS011;30778;53.574;7.770;2022-07-19T08:52:25;2.85;;;2.03;;
45039;SDS011;30778;53.574;7.770;2022-07-19T08:54:50;4.10;;;2.00;;
45039;SDS011;30778;53.574;7.770;2022-07-19T08:57:16;2.40;;;1.67;;
45039;SDS011;30778;53.574;7.770;2022-07-19T09:00:00;4.38;;;1.95;;
45039;SDS011;30778;53.574;7.770;2022-07-19T09:02:28;6.32;;;1.98;;
45039;SDS011;30778;53.574;7.770;2022-07-19T09:05:04;2.88;;;1.80;;
45039;SDS011;30778;53.574;7.770;2022-07-19T09:07:35;2.30;;;1.63;;
45039;SDS011;30778;53.574;7.770;2022-07-19T09:10:17;3.08;;;1.52;;
45039;SDS011;30778;53.574;7.770;2022-07-19T09:18:20;4.50;;;1.63;;
45039;SDS011;30778;53.574;7.770;2022-07-19T09:20:46;2.15;;;1.77;;
45039;SDS011;30778;53.574;7.770;2022-07-19T09:23:14;3.63;;;1.65;;
45039;SDS011;30778;53.574;7.770;2022-07-19T09:25:41;2.35;;;1.23;;
45039;SDS011;30778;53.574;7.770;2022-07-19T09:28:13;5.57;;;1.73;;
45039;SDS011;30778;53.574;7.770;2022-07-19T09:30:44;4.03;;;1.27;;
45039;SDS011;30778;53.574;7.770;2022-07-19T09:33:13;2.60;;;1.25;;
45039;SDS011;30778;53.574;7.770;2022-07-19T09:35:41;4.15;;;1.48;;
45039;SDS011;30778;53.574;7.770;2022-07-19T09:40:45;2.70;;;1.33;;
45039;SDS011;30778;53.574;7.770;2022-07-19T09:43:12;3.65;;;1.13;;
45039;SDS011;30778;53.574;7.770;2022-07-19T09:45:38;4.35;;;1.17;;
45039;SDS011;30778;53.574;7.770;2022-07-19T09:48:04;3.17;;;1.30;;
45039;SDS011;30778;53.574;7.770;2022-07-19T09:50:30;1.63;;;0.88;;
45039;SDS011;30778;53.574;7.770;2022-07-19T09:53:00;2.10;;;0.82;;
45039;SDS011;30778;53.574;7.770;2022-07-19T09:55:28;7.40;;;1.23;;
45039;SDS011;30778;53.574;7.770;2022-07-19T09:57:55;2.78;;;1.42;;
45039;SDS011;30778;53.574;7.770;2022-07-19T10:00:22;3.40;;;1.60;;
45039;SDS011;30778;53.574;7.770;2022-07-19T10:02:59;4.85;;;1.35;;
45039;SDS011;30778;53.574;7.770;2022-07-19T10:05:27;5.95;;;1.00;;
45039;SDS011;30778;53.574;7.770;2022-07-19T10:07:54;3.83;;;1.15;;
45039;SDS011;30778;53.574;7.770;2022-07-19T10:10:20;2.05;;;0.82;;
45039;SDS011;30778;53.574;7.770;2022-07-19T10:12:48;2.03;;;1.20;;
45039;SDS011;30778;53.574;7.770;2022-07-19T10:15:16;2.17;;;1.02;;
45039;SDS011;30778;53.574;7.770;2022-07-19T10:18:01;4.97;;;1.05;;
45039;SDS011;30778;53.574;7.770;2022-07-19T10:20:31;3.45;;;1.20;;
45039;SDS011;30778;53.574;7.770;2022-07-19T10:23:01;2.33;;;1.63;;
45039;SDS011;30778;53.574;7.770;2022-07-19T10:25:37;3.45;;;0.95;;
45039;SDS011;30778;53.574;7.770;2022-07-19T10:28:04;2.60;;;1.10;;
45039;SDS011;30778;53.574;7.770;2022-07-19T10:30:37;6.10;;;1.05;;
45039;SDS011;30778;53.574;7.770;2022-07-19T10:33:04;3.20;;;1.08;;
45039;SDS011;30778;53.574;7.770;2022-07-19T10:35:51;3.30;;;0.90;;
45039;SDS011;30778;53.574;7.770;2022-07-19T10:38:16;5.25;;;1.00;;
45039;SDS011;30778;53.574;7.770;2022-07-19T10:43:15;6.80;;;1.77;;
45039;SDS011;30778;53.574;7.770;2022-07-19T10:45:42;4.20;;;1.60;;
45039;SDS011;30778;53.574;7.770;2022-07-19T10:51:00;3.53;;;1.13;;
45039;SDS011;30778;53.574;7.770;2022-07-19T11:01:26;3.28;;;0.85;;
45039;SDS011;30778;53.574;7.770;2022-07-19T11:03:54;4.63;;;1.38;;
45039;SDS011;30778;53.574;7.770;2022-07-19T11:06:39;4.43;;;1.42;;
45039;SDS011;30778;53.574;7.770;2022-07-19T11:09:05;3.22;;;1.38;;
45039;SDS011;30778;53.574;7.770;2022-07-19T11:11:31;4.88;;;1.73;;
45039;SDS011;30778;53.574;7.770;2022-07-19T11:13:56;4.15;;;1.15;;
45039;SDS011;30778;53.574;7.770;2022-07-19T11:16:26;5.25;;;1.25;;
45039;SDS011;30778;53.574;7.770;2022-07-19T11:19:03;2.50;;;1.38;;
45039;SDS011;30778;53.574;7.770;2022-07-19T11:21:33;1.42;;;1.30;;
45039;SDS011;30778;53.574;7.770;2022-07-19T11:24:02;2.10;;;0.98;;
45039;SDS011;30778;53.574;7.770;2022-07-19T11:26:34;1.45;;;1.00;;
45039;SDS011;30778;53.574;7.770;2022-07-19T11:29:02;2.78;;;1.25;;
45039;SDS011;30778;53.574;7.770;2022-07-19T11:31:28;3.05;;;0.95;;
45039;SDS011;30778;53.574;7.770;2022-07-19T11:33:56;2.28;;;1.02;;
45039;SDS011;30778;53.574;7.770;2022-07-19T11:36:22;4.28;;;1.20;;
45039;SDS011;30778;53.574;7.770;2022-07-19T11:38:52;1.70;;;0.73;;
45039;SDS011;30778;53.574;7.770;2022-07-19T11:41:27;4.15;;;0.85;;
45039;SDS011;30778;53.574;7.770;2022-07-19T11:44:03;3.45;;;0.90;;
45039;SDS011;30778;53.574;7.770;2022-07-19T11:46:39;1.40;;;0.88;;
45039;SDS011;30778;53.574;7.770;2022-07-19T11:49:06;6.40;;;0.80;;
45039;SDS011;30778;53.574;7.770;2022-07-19T11:51:33;1.80;;;0.73;;
45039;SDS011;30778;53.574;7.770;2022-07-19T11:54:00;3.20;;;0.80;;
45039;SDS011;30778;53.574;7.770;2022-07-19T11:56:27;2.35;;;1.35;;
45039;SDS011;30778;53.574;7.770;2022-07-19T11:58:55;4.82;;;0.93;;
45039;SDS011;30778;53.574;7.770;2022-07-19T12:01:23;3.20;;;0.80;;
45039;SDS011;30778;53.574;7.770;2022-07-19T12:03:57;2.55;;;1.10;;
45039;SDS011;30778;53.574;7.770;2022-07-19T12:09:13;1.40;;;0.93;;
45039;SDS011;30778;53.574;7.770;2022-07-19T12:11:42;2.50;;;1.13;;
45039;SDS011;30778;53.574;7.770;2022-07-19T12:14:22;1.00;;;0.88;;
45039;SDS011;30778;53.574;7.770;2022-07-19T12:16:50;1.40;;;0.88;;
45039;SDS011;30778;53.574;7.770;2022-07-19T12:19:34;1.90;;;0.70;;
45039;SDS011;30778;53.574;7.770;2022-07-19T12:22:00;2.70;;;0.60;;
45039;SDS011;30778;53.574;7.770;2022-07-19T12:24:26;4.35;;;1.02;;
45039;SDS011;30778;53.574;7.770;2022-07-19T12:29:35;1.55;;;0.70;;
45039;SDS011;30778;53.574;7.770;2022-07-19T12:32:05;5.03;;;0.70;;
45039;SDS011;30778;53.574;7.770;2022-07-19T12:40:06;1.77;;;0.52;;
45039;SDS011;30778;53.574;7.770;2022-07-19T12:42:35;1.67;;;0.57;;
45039;SDS011;30778;53.574;7.770;2022-07-19T12:45:07;1.75;;;1.48;;
45039;SDS011;30778;53.574;7.770;2022-07-19T12:47:34;4.07;;;1.00;;
45039;SDS011;30778;53.574;7.770;2022-07-19T12:50:00;1.52;;;0.82;;
45039;SDS011;30778;53.574;7.770;2022-07-19T12:52:28;1.42;;;0.73;;
45039;SDS011;30778;53.574;7.770;2022-07-19T12:54:54;4.43;;;1.45;;
45039;SDS011;30778;53.574;7.770;2022-07-19T12:57:20;2.15;;;0.85;;
45039;SDS011;30778;53.574;7.770;2022-07-19T12:59:45;1.40;;;0.70;;
45039;SDS011;30778;53.574;7.770;2022-07-19T13:02:12;1.73;;;0.60;;
45039;SDS011;30778;53.574;7.770;2022-07-19T13:04:40;1.00;;;0.70;;
45039;SDS011;30778;53.574;7.770;2022-07-19T13:07:07;2.50;;;0.60;;
45039;SDS011;30778;53.574;7.770;2022-07-19T13:09:35;3.67;;;0.80;;
45039;SDS011;30778;53.574;7.770;2022-07-19T13:12:02;5.30;;;0.93;;
45039;SDS011;30778;53.574;7.770;2022-07-19T13:14:29;2.45;;;1.00;;
45039;SDS011;30778;53.574;7.770;2022-07-19T13:16:55;1.98;;;0.68;;
45039;SDS011;30778;53.574;7.770;2022-07-19T13:19:21;2.00;;;0.95;;
45039;SDS011;30778;53.574;7.770;2022-07-19T13:21:47;7.25;;;0.85;;
45039;SDS011;30778;53.574;7.770;2022-07-19T13:24:13;1.90;;;0.88;;
45039;SDS011;30778;53.574;7.770;2022-07-19T13:26:39;2.20;;;0.60;;
45039;SDS011;30778;53.574;7.770;2022-07-19T13:29:05;3.03;;;1.38;;
45039;SDS011;30778;53.574;7.770;2022-07-19T13:31:31;1.65;;;0.80;;
45039;SDS011;30778;53.574;7.770;2022-07-19T13:33:57;4.05;;;1.60;;
45039;SDS011;30778;53.574;7.770;2022-07-19T13:36:23;4.13;;;1.15;;
45039;SDS011;30778;53.574;7.770;2022-07-19T13:38:49;2.35;;;0.65;;
45039;SDS011;30778;53.574;7.770;2022-07-19T13:41:15;1.73;;;0.95;;
45039;SDS011;30778;53.574;7.770;2022-07-19T13:43:43;1.75;;;0.82;;
45039;SDS011;30778;53.574;7.770;2022-07-19T13:46:09;4.47;;;0.80;;
45039;SDS011;30778;53.574;7.770;2022-07-19T13:48:36;1.52;;;0.90;;
45039;SDS011;30778;53.574;7.770;2022-07-19T13:51:02;2.38;;;0.65;;
45039;SDS011;30778;53.574;7.770;2022-07-19T13:53:28;2.17;;;0.80;;
45039;SDS011;30778;53.574;7.770;2022-07-19T13:55:54;2.55;;;1.20;;
45039;SDS011;30778;53.574;7.770;2022-07-19T13:58:20;4.78;;;0.75;;
45039;SDS011;30778;53.574;7.770;2022-07-19T14:00:46;1.00;;;0.63;;
45039;SDS011;30778;53.574;7.770;2022-07-19T14:03:12;1.98;;;0.85;;
45039;SDS011;30778;53.574;7.770;2022-07-19T14:05:40;5.13;;;0.90;;
45039;SDS011;30778;53.574;7.770;2022-07-19T14:08:06;1.88;;;0.70;;
45039;SDS011;30778;53.574;7.770;2022-07-19T14:10:31;7.05;;;0.77;;
45039;SDS011;30778;53.574;7.770;2022-07-19T14:12:57;4.63;;;1.55;;
45039;SDS011;30778;53.574;7.770;2022-07-19T14:15:24;3.63;;;1.70;;
45039;SDS011;30778;53.574;7.770;2022-07-19T14:17:49;2.35;;;2.13;;
45039;SDS011;30778;53.574;7.770;2022-07-19T14:20:15;4.05;;;1.92;;
45039;SDS011;30778;53.574;7.770;2022-07-19T14:22:40;6.45;;;3.33;;
45039;SDS011;30778;53.574;7.770;2022-07-19T14:25:06;2.80;;;0.60;;
45039;SDS011;30778;53.574;7.770;2022-07-19T14:27:32;1.10;;;0.93;;
45039;SDS011;30778;53.574;7.770;2022-07-19T14:29:58;3.50;;;0.50;;
45039;SDS011;30778;53.574;7.770;2022-07-19T14:32:24;3.95;;;1.00;;
45039;SDS011;30778;53.574;7.770;2022-07-19T14:34:50;2.03;;;0.88;;
45039;SDS011;30778;53.574;7.770;2022-07-19T14:37:15;3.83;;;0.77;;
45039;SDS011;30778;53.574;7.770;2022-07-19T14:39:41;5.32;;;1.13;;
45039;SDS011;30778;53.574;7.770;2022-07-19T14:42:07;2.17;;;1.23;;
45039;SDS011;30778;53.574;7.770;2022-07-19T14:44:32;1.95;;;0.80;;
45039;SDS011;30778;53.574;7.770;2022-07-19T14:46:58;4.93;;;0.82;;
45039;SDS011;30778;53.574;7.770;2022-07-19T14:49:24;1.75;;;0.57;;
45039;SDS011;30778;53.574;7.770;2022-07-19T14:51:50;2.97;;;0.90;;
45039;SDS011;30778;53.574;7.770;2022-07-19T14:54:15;3.38;;;1.80;;
45039;SDS011;30778;53.574;7.770;2022-07-19T14:56:41;4.80;;;0.77;;
45039;SDS011;30778;53.574;7.770;2022-07-19T14:59:07;2.70;;;1.02;;
45039;SDS011;30778;53.574;7.770;2022-07-19T15:01:33;1.65;;;0.90;;
45039;SDS011;30778;53.574;7.770;2022-07-19T15:03:59;1.98;;;0.57;;
45039;SDS011;30778;53.574;7.770;2022-07-19T15:06:25;1.17;;;0.70;;
45039;SDS011;30778;53.574;7.770;2022-07-19T15:08:51;5.32;;;0.68;;
45039;SDS011;30778;53.574;7.770;2022-07-19T15:11:17;1.48;;;0.98;;
45039;SDS011;30778;53.574;7.770;2022-07-19T15:13:43;3.72;;;0.73;;
45039;SDS011;30778;53.574;7.770;2022-07-19T15:16:09;3.72;;;0.60;;
45039;SDS011;30778;53.574;7.770;2022-07-19T15:18:35;1.75;;;0.90;;